Time;durP1;ratioP1;P1;durP2;ratioP2;P2;SDS_P1;SDS_P2;PMS_P1;PMS_P2;Temp;Humidity;BMP_temperature;BMP_pressure;BME280_temperature;BME280_humidity;BME280_pressure;Samples;Min_cycle;Max_cycle;Signal;HPM_P1;HPM_P2
2024/02/07 00:01:10;;;;;;;;;10.33;8.33;;;;;-144.24;100.00;105979.50;5035311;28;68507;-72
2024/02/07 00:03:35;;;;;;;;;11.33;8.00;;;;;-144.24;100.00;105953.06;5043463;28;45535;-71
2024/02/07 00:06:01;;;;;;;;;13.67;10.67;;;;;-144.24;100.00;105918.50;5036933;28;45467;-72
2024/02/07 00:08:26;;;;;;;;;11.33;8.33;;;;;-144.24;100.00;105755.88;5035498;28;63899;-72
2024/02/07 00:10:51;;;;;;;;;11.33;9.33;;;;;-144.24;100.00;105692.84;5036143;28;68729;-73
2024/02/07 00:13:17;;;;;;;;;10.67;7.67;;;;;-144.24;100.00;105798.56;5016361;28;45460;-72
2024/02/07 00:15:42;;;;;;;;;13.33;8.00;;;;;-144.24;100.00;105642.03;5035720;28;54034;-72
2024/02/07 00:18:07;;;;;;;;;11.00;7.00;;;;;-144.24;100.00;105644.06;5019623;28;45535;-71
2024/02/07 00:20:33;;;;;;;;;11.00;9.00;;;;;-144.24;100.00;105538.34;5035701;28;64184;-71
2024/02/07 00:22:58;;;;;;;;;18.00;12.67;;;;;-144.24;100.00;105414.34;5035837;28;45271;-71
2024/02/07 00:25:23;;;;;;;;;10.67;7.33;;;;;-144.24;100.00;105387.91;5019376;28;45507;-72
2024/02/07 00:27:49;;;;;;;;;8.67;8.33;;;;;-144.24;100.00;105233.41;5035249;28;66891;-70
2024/02/07 00:30:15;;;;;;;;;13.67;7.67;;;;;-144.24;100.00;105215.13;5032864;28;46887;-72
2024/02/07 00:32:40;;;;;;;;;13.33;11.00;;;;;-144.24;100.00;105235.44;5033351;28;45426;-72
2024/02/07 00:35:07;;;;;;;;;15.00;8.67;;;;;-144.24;100.00;104969.16;5034952;28;45652;-72
2024/02/07 00:37:32;;;;;;;;;14.33;9.33;;;;;-144.24;100.00;104961.03;5035845;28;45372;-72
2024/02/07 00:39:58;;;;;;;;;11.67;8.67;;;;;-144.24;100.00;104904.13;5018157;28;72718;-72
2024/02/07 00:42:23;;;;;;;;;9.67;6.00;;;;;-144.24;100.00;104780.13;5019404;28;45463;-72
2024/02/07 00:44:48;;;;;;;;;13.00;11.00;;;;;-144.24;100.00;104739.47;5036541;28;45455;-71
2024/02/07 00:47:14;;;;;;;;;13.00;7.00;;;;;-144.24;100.00;104741.50;5018397;28;64065;-72
2024/02/07 00:49:39;;;;;;;;;11.33;10.33;;;;;-144.24;100.00;104656.16;5034710;28;45923;-72
2024/02/07 00:52:05;;;;;;;;;11.00;7.33;;;;;-144.24;100.00;104627.69;5017905;28;45665;-72
2024/02/07 00:54:30;;;;;;;;;14.33;10.00;;;;;-144.24;100.00;104613.47;5035798;28;45360;-72
2024/02/07 00:56:55;;;;;;;;;11.33;7.33;;;;;-144.24;100.00;104461.03;5036185;28;48667;-72
2024/02/07 00:59:21;;;;;;;;;12.00;11.33;;;;;-144.24;100.00;104343.16;5035165;28;45841;-71
2024/02/07 01:01:47;;;;;;;;;10.67;10.67;;;;;-144.24;100.00;104243.56;5017663;28;45814;-72
2024/02/07 01:04:12;;;;;;;;;11.00;7.00;;;;;-144.24;100.00;104202.91;5035509;28;45341;-71
2024/02/07 01:06:40;;;;;;;;;11.33;9.00;;;;;-144.24;100.00;104257.78;5029667;28;56682;-72
2024/02/07 01:09:06;;;;;;;;;11.67;10.33;;;;;-144.24;100.00;104040.34;5035526;28;45668;-72
2024/02/07 01:11:32;;;;;;;;;12.67;6.33;;;;;-144.24;100.00;104105.38;5037271;28;45187;-71
2024/02/07 01:13:57;;;;;;;;;13.33;7.00;;;;;-144.24;100.00;103867.63;5035977;28;45562;-72
2024/02/07 01:16:22;;;;;;;;;9.33;8.00;;;;;-144.24;100.00;103676.59;5019090;28;45684;-72
2024/02/07 01:18:50;;;;;;;;;14.67;10.67;;;;;-144.24;100.00;103656.28;5035183;28;54692;-71
2024/02/07 01:21:16;;;;;;;;;8.33;7.33;;;;;-144.24;100.00;103640.03;5020391;28;45468;-72
2024/02/07 01:23:45;;;;;;;;;8.33;8.33;;;;;-144.24;100.00;103694.88;5035779;28;45464;-72
2024/02/07 01:26:13;;;;;;;;;11.67;9.33;;;;;-144.24;100.00;103495.75;5035816;28;45535;-72
2024/02/07 01:28:39;;;;;;;;;12.00;10.00;;;;;-144.24;100.00;103542.50;5034664;28;45749;-72
2024/02/07 01:31:05;;;;;;;;;11.33;10.33;;;;;-144.24;100.00;103373.84;5031793;28;45438;-72
2024/02/07 01:33:30;;;;;;;;;7.00;7.00;;;;;-144.24;100.00;103278.34;5017682;28;45559;-71
2024/02/07 01:35:56;;;;;;;;;9.33;7.67;;;;;-144.24;100.00;103331.19;5032718;28;60322;-72
2024/02/07 01:38:21;;;;;;;;;8.67;7.33;;;;;-144.24;100.00;103337.28;5038448;28;71103;-73
2024/02/07 01:40:47;;;;;;;;;13.00;10.67;;;;;-144.24;100.00;103233.66;5033278;28;45377;-71
2024/02/07 01:43:12;;;;;;;;;10.33;6.00;;;;;-144.24;100.00;102920.78;5033773;28;45610;-73
2024/02/07 01:45:38;;;;;;;;;12.00;10.33;;;;;-144.24;100.00;102878.09;5016298;28;64829;-73
2024/02/07 01:48:05;;;;;;;;;13.67;8.00;;;;;-144.24;100.00;102800.91;5015005;28;46528;-72
2024/02/07 01:50:30;;;;;;;;;10.67;6.67;;;;;-144.24;100.00;102746.06;5035198;28;45461;-72
2024/02/07 01:52:58;;;;;;;;;10.67;9.67;;;;;-144.24;100.00;102620.09;5017358;28;45455;-73
2024/02/07 01:55:25;;;;;;;;;12.33;9.00;;;;;-144.24;100.00;102632.28;5017961;28;45544;-72
2024/02/07 01:57:50;;;;;;;;;10.00;10.00;;;;;-144.24;100.00;102540.88;5035238;28;45854;-72
2024/02/07 02:00:16;;;;;;;;;9.33;7.67;;;;;-144.24;100.00;102577.44;5035120;28;45406;-71
2024/02/07 02:02:43;;;;;;;;;13.00;9.33;;;;;-144.24;100.00;102634.31;5035279;28;45490;-71
2024/02/07 02:05:09;;;;;;;;;8.67;7.33;;;;;-144.24;100.00;102477.91;5017665;28;45392;-72
2024/02/07 02:07:34;;;;;;;;;7.00;7.00;;;;;-144.24;100.00;102455.56;5031091;28;70135;-71
2024/02/07 02:09:59;;;;;;;;;12.00;9.00;;;;;-144.24;100.00;102406.81;5034512;28;69774;-71
2024/02/07 02:12:26;;;;;;;;;9.67;8.33;;;;;-144.24;100.00;102544.94;5033179;28;45444;-72
2024/02/07 02:14:52;;;;;;;;;14.00;9.67;;;;;-144.24;100.00;102315.38;5017432;28;45440;-71
2024/02/07 02:17:17;;;;;;;;;12.33;7.67;;;;;-144.24;100.00;102423.06;5033719;28;45828;-73
2024/02/07 02:19:43;;;;;;;;;9.67;6.33;;;;;-144.24;100.00;102524.63;5034596;28;64667;-72
2024/02/07 02:22:22;;;;;;;;;8.67;7.33;;;;;-144.24;100.00;102742.00;5017228;28;45376;-70
2024/02/07 02:25:15;;;;;;;;;10.33;8.33;;;;;-144.24;100.00;102802.94;5031048;28;45526;-72
2024/02/07 02:28:03;;;;;;;;;11.67;9.33;;;;;-144.24;100.00;102778.56;5034795;28;45732;-72
2024/02/07 02:30:40;;;;;;;;;9.67;6.33;;;;;-144.24;100.00;103010.16;5022915;28;45422;-72
2024/02/07 02:33:09;;;;;;;;;9.67;8.33;;;;;-144.24;100.00;102922.81;5018312;28;45534;-72
2024/02/07 02:35:36;;;;;;;;;11.67;6.67;;;;;-144.24;100.00;103010.16;5023306;28;45427;-71
2024/02/07 02:38:02;;;;;;;;;9.33;4.00;;;;;-144.24;100.00;103103.63;5017014;28;46503;-71
2024/02/07 02:40:29;;;;;;;;;11.00;9.33;;;;;-144.24;100.00;102869.97;5016906;28;45506;-72
2024/02/07 02:42:57;;;;;;;;;11.33;7.00;;;;;-144.24;100.00;103184.88;5038659;28;45848;-71
2024/02/07 02:45:22;;;;;;;;;10.00;8.67;;;;;-144.24;100.00;103164.56;5019907;28;45416;-71
2024/02/07 02:47:48;;;;;;;;;13.00;9.67;;;;;-144.24;100.00;103144.25;5035082;28;55489;-72
2024/02/07 02:50:15;;;;;;;;;10.67;8.00;;;;;-144.24;100.00;103178.78;5035419;28;73623;-72
2024/02/07 02:52:41;;;;;;;;;12.33;10.33;;;;;-144.24;100.00;103347.44;5028489;28;45459;-72
2024/02/07 02:55:07;;;;;;;;;13.00;12.00;;;;;-144.24;100.00;103412.44;5020312;28;45448;-72
2024/02/07 02:57:32;;;;;;;;;10.00;8.67;;;;;-144.24;100.00;103359.63;5032527;28;46753;-72
2024/02/07 02:59:58;;;;;;;;;9.33;7.00;;;;;-144.24;100.00;103347.44;5034480;28;45403;-71
2024/02/07 03:02:23;;;;;;;;;12.33;8.67;;;;;-144.24;100.00;103363.69;5036234;28;45372;-72
2024/02/07 03:04:50;;;;;;;;;12.33;9.00;;;;;-144.24;100.00;103430.72;5020317;28;45395;-71
2024/02/07 03:10:00;;;;;;;;;8.33;7.67;;;;;-144.24;100.00;103538.44;5037173;28;45597;-71
2024/02/07 03:12:26;;;;;;;;;11.00;7.33;;;;;-144.24;100.00;103566.88;5038055;28;45482;-72
2024/02/07 03:14:51;;;;;;;;;13.00;9.67;;;;;-144.24;100.00;103694.88;5020152;28;45415;-71
2024/02/07 03:17:17;;;;;;;;;11.00;8.67;;;;;-144.24;100.00;103703.00;5002683;28;48007;-72
2024/02/07 03:19:42;;;;;;;;;11.33;10.00;;;;;-144.24;100.00;103808.69;5036531;28;71760;-72
2024/02/07 03:22:09;;;;;;;;;11.00;9.67;;;;;-144.24;100.00;103894.03;5035847;28;65216;-71
2024/02/07 03:24:35;;;;;;;;;11.00;10.33;;;;;-144.24;100.00;103774.13;5036164;28;45435;-72
2024/02/07 03:27:00;;;;;;;;;12.67;8.33;;;;;-144.24;100.00;103843.22;5031861;28;46045;-72
2024/02/07 03:29:26;;;;;;;;;11.00;7.00;;;;;-144.24;100.00;103824.94;5033089;28;55973;-72
2024/02/07 03:31:53;;;;;;;;;7.00;7.00;;;;;-144.24;100.00;103719.28;5037168;28;45448;-71
2024/02/07 03:34:19;;;;;;;;;15.00;9.33;;;;;-144.24;100.00;103664.41;5034708;28;45622;-72
2024/02/07 03:36:44;;;;;;;;;9.33;8.33;;;;;-144.24;100.00;103867.63;5037251;28;46113;-72
2024/02/07 03:39:09;;;;;;;;;13.67;11.00;;;;;-144.24;100.00;103351.50;5018104;28;68467;-72
2024/02/07 03:41:35;;;;;;;;;11.67;7.33;;;;;-144.24;100.00;103347.44;5031935;28;45345;-70
2024/02/07 03:44:01;;;;;;;;;15.33;10.00;;;;;-144.24;100.00;103274.28;5037018;28;45340;-71
2024/02/07 03:46:27;;;;;;;;;13.00;10.00;;;;;-144.24;100.00;103223.50;5019792;28;45953;-71
2024/02/07 03:48:53;;;;;;;;;12.67;10.00;;;;;-144.24;100.00;103123.94;5018877;28;45490;-72
2024/02/07 03:51:18;;;;;;;;;14.00;11.00;;;;;-144.24;100.00;102953.28;5037290;28;45512;-72
2024/02/07 03:53:45;;;;;;;;;8.33;7.33;;;;;-144.24;100.00;102681.03;5035272;28;64715;-72
2024/02/07 03:56:11;;;;;;;;;11.67;9.00;;;;;-144.24;100.00;102772.47;5015475;28;46316;-72
2024/02/07 03:58:37;;;;;;;;;10.67;8.00;;;;;-144.24;100.00;102532.75;5010875;28;45422;-71
2024/02/07 04:01:03;;;;;;;;;11.00;10.00;;;;;-144.24;100.00;102410.88;5036077;28;45397;-72
2024/02/07 04:03:29;;;;;;;;;12.33;10.00;;;;;-144.24;100.00;102313.34;5037728;28;45292;-72
2024/02/07 04:05:54;;;;;;;;;8.33;8.33;;;;;-144.24;100.00;101966.03;5018639;28;46978;-72
2024/02/07 04:08:19;;;;;;;;;9.33;7.00;;;;;-144.24;100.00;101937.59;5001416;28;68712;-72
2024/02/07 04:10:51;;;;;;;;;11.33;10.67;;;;;-144.24;100.00;101677.59;5018106;28;65795;-72
2024/02/07 05:15:51;;;;;;;;;11.33;11.33;;;;;-144.24;100.00;93719.84;4995873;28;45583;-72
2024/02/07 05:18:16;;;;;;;;;12.00;10.00;;;;;-144.24;100.00;93476.63;5023491;28;45273;-71
2024/02/07 05:20:42;;;;;;;;;11.00;9.67;;;;;-144.24;100.00;93067.22;5001226;28;45983;-71
2024/02/07 05:23:07;;;;;;;;;11.33;8.33;;;;;-144.24;100.00;92854.41;5014496;28;64530;-73
2024/02/07 05:25:33;;;;;;;;;11.00;10.00;;;;;-144.24;100.00;92586.91;5015761;28;45421;-71
2024/02/07 05:27:59;;;;;;;;;7.67;6.00;;;;;-144.24;100.00;92467.34;5016216;28;45776;-73
2024/02/07 05:30:24;;;;;;;;;11.00;9.33;;;;;-144.24;100.00;92122.88;5015357;28;45808;-71
2024/02/07 05:32:50;;;;;;;;;13.33;9.33;;;;;-144.24;100.00;91812.88;5015922;28;45404;-71
2024/02/07 05:35:15;;;;;;;;;21.67;14.00;;;;;-144.24;100.00;91810.88;5017460;28;64376;-71
2024/02/07 05:37:41;;;;;;;;;12.00;10.00;;;;;-144.24;100.00;91318.56;5035223;28;49867;-71
2024/02/07 05:40:07;;;;;;;;;10.67;10.00;;;;;-144.24;100.00;91136.25;5029456;28;45622;-72
2024/02/07 05:42:32;;;;;;;;;12.00;8.67;;;;;-144.24;100.00;90951.91;5035425;28;45294;-72
2024/02/07 05:44:57;;;;;;;;;14.33;11.00;;;;;-144.24;100.00;90881.00;5037433;28;67704;-72
2024/02/07 05:47:23;;;;;;;;;14.00;11.00;;;;;-144.24;100.00;91152.44;5035859;28;45555;-72
2024/02/07 05:49:48;;;;;;;;;13.33;10.67;;;;;-144.24;100.00;91006.59;5034546;28;72827;-72
2024/02/07 05:52:14;;;;;;;;;8.00;7.00;;;;;-144.24;100.00;90834.44;5034667;28;70665;-72
2024/02/07 05:54:40;;;;;;;;;11.00;10.00;;;;;-144.24;100.00;90518.44;5035758;28;45336;-71
2024/02/07 05:57:08;;;;;;;;;14.67;10.00;;;;;-144.24;100.00;90099.22;5020592;28;45632;-72
2024/02/07 05:59:34;;;;;;;;;13.33;10.33;;;;;-144.24;100.00;89680.03;5021153;28;45547;-72
2024/02/07 06:02:01;;;;;;;;;13.33;10.33;;;;;-144.24;100.00;89619.28;5017148;28;45351;-72
2024/02/07 06:04:26;;;;;;;;;11.00;11.00;;;;;-144.24;100.00;89384.38;5029762;28;45457;-73
2024/02/07 06:06:52;;;;;;;;;8.33;8.33;;;;;-144.24;100.00;89258.84;5035526;28;45370;-71
2024/02/07 06:09:17;;;;;;;;;13.00;8.00;;;;;-144.24;100.00;89157.59;5034524;28;46503;-70
2024/02/07 06:11:43;;;;;;;;;14.67;9.67;;;;;-144.24;100.00;88894.41;5035445;28;45374;-72
2024/02/07 06:14:10;;;;;;;;;16.67;12.00;;;;;-144.24;100.00;88643.38;5035077;28;45444;-72
2024/02/07 06:16:36;;;;;;;;;12.33;9.67;;;;;-144.24;100.00;88584.66;5020512;28;45362;-71
2024/02/07 06:19:02;;;;;;;;;12.33;12.33;;;;;-144.24;100.00;88489.50;5020625;28;48698;-72
2024/02/07 06:21:27;;;;;;;;;12.33;10.33;;;;;-144.24;100.00;88471.28;5021855;28;45729;-72
2024/02/07 06:23:53;;;;;;;;;16.00;11.33;;;;;-144.24;100.00;88390.31;5023760;28;45871;-72
2024/02/07 06:26:18;;;;;;;;;12.33;10.00;;;;;-144.24;100.00;88242.53;5021392;28;65176;-71
2024/02/07 06:28:46;;;;;;;;;11.67;6.67;;;;;-144.24;100.00;88094.78;5037291;28;50120;-71
2024/02/07 06:31:12;;;;;;;;;10.33;10.33;;;;;-144.24;100.00;87904.50;5023103;28;45507;-71
2024/02/07 06:33:38;;;;;;;;;7.67;7.33;;;;;-144.24;100.00;87942.97;5021821;28;45508;-72
2024/02/07 06:36:03;;;;;;;;;9.00;8.33;;;;;-144.24;100.00;87841.75;5057708;22;45901;-73
2024/02/07 06:38:29;;;;;;;;;15.00;11.33;;;;;-144.24;100.00;87823.53;5035579;28;45856;-72
2024/02/07 06:40:54;;;;;;;;;9.00;7.67;;;;;-144.24;100.00;87696.03;5033605;28;60553;-72
2024/02/07 06:43:19;;;;;;;;;14.33;9.67;;;;;-144.24;100.00;87477.44;5020109;28;66294;-72
2024/02/07 06:45:45;;;;;;;;;18.00;12.00;;;;;-144.24;100.00;87641.38;5034129;28;58660;-71
2024/02/07 06:48:10;;;;;;;;;11.00;7.67;;;;;-144.24;100.00;87473.41;5035783;28;46752;-72
2024/02/07 06:50:35;;;;;;;;;12.00;9.00;;;;;-144.24;100.00;87222.44;5035833;28;45436;-71
2024/02/07 06:53:01;;;;;;;;;11.33;8.33;;;;;-144.24;100.00;87115.19;5034493;28;62821;-71
2024/02/07 06:55:26;;;;;;;;;13.00;10.00;;;;;-144.24;100.00;87086.84;5036429;28;56270;-72
2024/02/07 06:57:51;;;;;;;;;11.00;8.67;;;;;-144.24;100.00;86926.97;5035968;28;68477;-71
2024/02/07 07:00:17;;;;;;;;;12.33;9.33;;;;;-144.24;100.00;86708.44;5042391;28;45400;-72
2024/02/07 07:02:43;;;;;;;;;13.33;10.33;;;;;-144.24;100.00;86651.78;5035679;28;45437;-74
2024/02/07 07:05:09;;;;;;;;;16.00;12.00;;;;;-144.24;100.00;86500.03;5036678;28;45271;-74
2024/02/07 07:07:34;;;;;;;;;10.67;7.00;;;;;-144.24;100.00;86417.06;5016395;28;45511;-73
2024/02/07 07:10:00;;;;;;;;;14.33;10.00;;;;;-144.24;100.00;86297.69;5011477;28;45403;-73
2024/02/07 07:12:26;;;;;;;;;12.00;10.33;;;;;-144.24;100.00;86408.97;5015899;28;45404;-75
2024/02/07 07:14:51;;;;;;;;;11.00;11.00;;;;;-144.24;100.00;86137.84;5036063;28;45478;-73
2024/02/07 07:17:17;;;;;;;;;13.00;11.00;;;;;-144.24;100.00;86109.53;5035955;28;46631;-73
2024/02/07 07:19:42;;;;;;;;;12.33;9.33;;;;;-144.24;100.00;86034.69;5036673;28;45478;-74
2024/02/07 07:22:08;;;;;;;;;13.67;10.00;;;;;-144.24;100.00;85957.78;5035710;28;59962;-71
2024/02/07 07:24:33;;;;;;;;;13.33;9.33;;;;;-144.24;100.00;85747.41;5031337;28;45357;-73
2024/02/07 07:26:59;;;;;;;;;11.33;7.00;;;;;-144.24;100.00;85520.84;5012189;28;48897;-74
2024/02/07 07:29:24;;;;;;;;;12.00;8.00;;;;;-144.24;100.00;85342.81;5026301;28;64740;-72
2024/02/07 07:31:49;;;;;;;;;12.33;8.33;;;;;-144.24;100.00;85308.44;5014416;28;45616;-71
2024/02/07 07:34:15;;;;;;;;;13.33;11.00;;;;;-144.24;100.00;85259.88;5033464;28;45491;-72
2024/02/07 07:36:40;;;;;;;;;13.00;10.67;;;;;-144.24;100.00;85063.69;5024133;28;71020;-69
2024/02/07 07:39:06;;;;;;;;;13.00;11.00;;;;;-144.24;100.00;84956.47;5031258;28;45518;-70
2024/02/07 07:41:31;;;;;;;;;11.67;10.00;;;;;-144.24;100.00;84912.00;5033903;28;45752;-69
2024/02/07 07:43:57;;;;;;;;;3.67;3.00;;;;;-144.24;100.00;84816.94;5014600;28;51774;-68
2024/02/07 07:46:22;;;;;;;;;15.00;10.00;;;;;-144.24;100.00;84912.00;5009133;28;48241;-69
2024/02/07 07:48:48;;;;;;;;;7.33;6.00;;;;;-144.24;100.00;84740.06;5033377;28;45452;-68
2024/02/07 07:51:19;;;;;;;;;13.00;11.00;;;;;-144.24;100.00;84774.44;5025005;28;45635;-70
2024/02/07 07:53:44;;;;;;;;;11.00;11.00;;;;;-144.24;100.00;84578.28;5027127;28;45548;-69
2024/02/07 07:56:10;;;;;;;;;13.00;9.33;;;;;-144.24;100.00;84624.78;5031154;28;46409;-70
2024/02/07 07:58:37;;;;;;;;;13.33;6.00;;;;;-144.24;100.00;84610.63;5014738;28;45445;-71
2024/02/07 08:01:04;;;;;;;;;10.00;9.67;;;;;-144.24;100.00;84659.16;5032475;28;45451;-70
2024/02/07 08:03:29;;;;;;;;;14.00;11.00;;;;;-144.24;100.00;84709.72;5013861;28;45571;-71
2024/02/07 08:05:54;;;;;;;;;11.00;8.67;;;;;-144.24;100.00;84580.28;5024615;28;72243;-70
2024/02/07 08:08:20;;;;;;;;;15.33;13.00;;;;;-144.24;100.00;84610.63;5034169;28;68023;-69
2024/02/07 08:10:46;;;;;;;;;13.00;10.00;;;;;-144.24;100.00;84479.19;5029032;28;64362;-70
2024/02/07 08:13:12;;;;;;;;;11.00;11.00;;;;;-144.24;100.00;84426.59;5031645;28;45512;-70
2024/02/07 08:15:37;;;;;;;;;13.67;7.33;;;;;-144.24;100.00;84473.09;5030470;28;45526;-71
2024/02/07 08:18:03;;;;;;;;;13.33;12.33;;;;;-144.24;100.00;84507.50;5032494;28;45498;-69
2024/02/07 08:20:28;;;;;;;;;16.67;11.67;;;;;-144.24;100.00;84268.84;5028313;28;45476;-71
2024/02/07 08:22:53;;;;;;;;;13.00;12.00;;;;;-144.24;100.00;84238.53;5029887;28;66171;-72
2024/02/07 08:25:21;;;;;;;;;13.67;7.33;;;;;-144.24;100.00;84177.84;5027999;28;67622;-72
2024/02/07 08:27:47;;;;;;;;;18.67;12.00;;;;;-144.24;100.00;83971.59;5032588;28;45436;-70
2024/02/07 08:30:13;;;;;;;;;12.00;9.67;;;;;-144.24;100.00;84052.47;5014287;28;45345;-69
2024/02/07 08:32:38;;;;;;;;;10.33;10.33;;;;;-144.24;100.00;83957.44;5030069;28;46977;-69
2024/02/07 08:35:04;;;;;;;;;15.33;11.67;;;;;-144.24;100.00;83777.47;5012042;28;73186;-71
2024/02/07 08:37:30;;;;;;;;;13.00;12.00;;;;;-144.24;100.00;83621.78;5014456;28;45975;-70
2024/02/07 08:39:55;;;;;;;;;17.00;13.67;;;;;-144.24;100.00;83447.91;5032383;28;45390;-70
2024/02/07 08:42:20;;;;;;;;;8.00;6.33;;;;;-144.24;100.00;83348.81;5032560;28;45561;-70
2024/02/07 08:44:46;;;;;;;;;17.00;8.67;;;;;-144.24;100.00;83292.22;5027630;28;46522;-70
2024/02/07 08:47:11;;;;;;;;;12.00;10.67;;;;;-144.24;100.00;83144.63;5014453;28;45543;-70
2024/02/07 08:49:37;;;;;;;;;15.00;12.33;;;;;-144.24;100.00;82978.84;5031166;28;67857;-70
2024/02/07 08:52:02;;;;;;;;;11.33;9.00;;;;;-144.24;100.00;82738.28;5030233;28;45509;-70
2024/02/07 08:54:27;;;;;;;;;16.00;12.00;;;;;-144.24;100.00;82481.56;5032412;28;46297;-73
2024/02/07 08:56:53;;;;;;;;;12.00;9.33;;;;;-144.24;100.00;82418.91;5013300;28;45439;-71
2024/02/07 08:59:18;;;;;;;;;10.67;10.67;;;;;-144.24;100.00;82366.34;5030986;28;61916;-72
2024/02/07 09:01:43;;;;;;;;;12.00;10.33;;;;;-144.24;100.00;82370.41;5030806;28;63169;-71
2024/02/07 09:04:09;;;;;;;;;14.00;13.67;;;;;-144.24;100.00;82269.34;5032282;28;71299;-71
2024/02/07 09:06:34;;;;;;;;;15.33;13.33;;;;;-144.24;100.00;81952.00;5032744;28;68390;-72
2024/02/07 09:08:59;;;;;;;;;12.00;12.00;;;;;-144.24;100.00;81802.44;5032421;28;46521;-70
2024/02/07 09:11:25;;;;;;;;;23.50;20.25;;;;;-144.24;100.00;81660.97;5014359;28;46441;-71
2024/02/07 09:13:50;;;;;;;;;8.67;6.00;;;;;-144.24;100.00;81663.00;5029480;28;68007;-71
2024/02/07 09:16:16;;;;;;;;;14.00;12.67;;;;;-144.24;100.00;81460.91;5029794;28;70793;-71
2024/02/07 09:18:41;;;;;;;;;17.00;10.00;;;;;-144.24;100.00;81549.84;5030327;28;58444;-72
2024/02/07 09:21:07;;;;;;;;;14.00;13.00;;;;;-144.24;100.00;81539.72;5028202;28;65568;-72
2024/02/07 09:23:32;;;;;;;;;14.33;13.00;;;;;-144.24;100.00;81511.44;5014844;28;70082;-72
2024/02/07 09:25:57;;;;;;;;;17.33;11.67;;;;;-144.24;100.00;81414.44;5030006;28;69957;-70
2024/02/07 09:28:23;;;;;;;;;17.67;11.67;;;;;-144.24;100.00;81398.28;5029511;28;57351;-71
2024/02/07 09:30:48;;;;;;;;;16.00;13.00;;;;;-144.24;100.00;81436.66;5027509;28;66270;-70
2024/02/07 09:33:14;;;;;;;;;17.00;13.00;;;;;-144.24;100.00;81450.81;5021803;28;69873;-70
2024/02/07 09:35:41;;;;;;;;;13.00;13.00;;;;;-144.24;100.00;81309.34;5014842;28;45567;-71
2024/02/07 09:38:06;;;;;;;;;16.67;11.00;;;;;-144.24;100.00;81440.72;5028926;28;45579;-71
2024/02/07 09:40:32;;;;;;;;;11.00;11.00;;;;;-144.24;100.00;81489.19;5022496;28;45527;-70
2024/02/07 09:42:57;;;;;;;;;18.33;15.33;;;;;-144.24;100.00;81640.78;5025819;28;46436;-69
2024/02/07 09:45:23;;;;;;;;;17.00;14.00;;;;;-144.24;100.00;81634.72;5022606;28;45420;-71
2024/02/07 09:48:00;;;;;;;;;15.33;13.67;;;;;-144.24;100.00;81814.56;5022652;28;63313;-70
2024/02/07 09:50:25;;;;;;;;;15.33;12.33;;;;;-144.24;100.00;81772.13;5013433;28;45467;-72
2024/02/07 09:52:51;;;;;;;;;14.67;13.00;;;;;-144.24;100.00;81958.06;5014760;28;74908;-72
2024/02/07 09:55:16;;;;;;;;;15.33;13.33;;;;;-144.24;100.00;82036.91;5034712;28;45645;-70
2024/02/07 09:57:42;;;;;;;;;18.67;13.00;;;;;-144.24;100.00;82483.59;5015336;28;62070;-71
2024/02/07 10:00:08;;;;;;;;;13.33;10.00;;;;;-144.24;100.00;82978.84;5032543;28;45612;-70
2024/02/07 10:02:36;;;;;;;;;14.00;12.33;;;;;-144.24;100.00;83360.97;5036045;28;46776;-71
2024/02/07 10:05:04;;;;;;;;;18.33;15.33;;;;;-144.24;100.00;83395.34;5028336;28;45476;-71
2024/02/07 10:07:29;;;;;;;;;13.67;12.00;;;;;-144.24;100.00;83783.53;5035178;28;45555;-71
2024/02/07 10:09:57;;;;;;;;;15.67;13.67;;;;;-144.24;100.00;83498.44;5013966;28;47386;-70
2024/02/07 10:12:23;;;;;;;;;14.00;11.67;;;;;-144.24;100.00;83047.59;5012058;28;45787;-69
2024/02/07 10:14:49;;;;;;;;;14.33;12.00;;;;;-144.24;100.00;83126.44;5033463;28;60431;-71
2024/02/07 10:17:15;;;;;;;;;13.33;12.00;;;;;-144.24;100.00;83124.41;5030161;28;59067;-72
2024/02/07 10:19:40;;;;;;;;;13.00;11.00;;;;;-144.24;100.00;83263.91;5029972;28;45432;-70
2024/02/07 10:22:16;;;;;;;;;12.67;10.00;;;;;-144.24;100.00;82906.09;5037558;28;65256;-71
2024/02/07 10:24:41;;;;;;;;;14.00;12.00;;;;;-144.24;100.00;83166.88;5034616;28;45499;-70
2024/02/07 10:27:06;;;;;;;;;13.33;12.00;;;;;-144.24;100.00;83120.38;5033254;28;66629;-71
2024/02/07 10:29:32;;;;;;;;;10.00;8.33;;;;;-144.24;100.00;82863.63;5032273;28;51019;-71
2024/02/07 10:31:57;;;;;;;;;12.00;10.00;;;;;-144.24;100.00;82750.41;5031736;28;60575;-70
2024/02/07 10:34:23;;;;;;;;;15.00;11.33;;;;;-144.24;100.00;82647.31;5033603;28;60369;-70
2024/02/07 10:36:59;;;;;;;;;13.33;9.33;;;;;-144.24;100.00;82382.53;4990702;28;1182491;-71
2024/02/07 10:39:24;;;;;;;;;14.00;11.33;;;;;-144.24;100.00;82137.97;5036381;28;45455;-70
2024/02/07 10:41:50;;;;;;;;;8.00;8.00;;;;;-144.24;100.00;82047.00;5020842;28;46103;-71
2024/02/07 10:44:17;;;;;;;;;11.67;11.67;;;;;-144.24;100.00;81873.19;5035995;28;57737;-70
2024/02/07 10:46:42;;;;;;;;;14.33;14.00;;;;;-144.24;100.00;81479.09;5018410;28;45285;-70
2024/02/07 10:49:09;;;;;;;;;8.00;6.67;;;;;-144.24;100.00;81173.97;5033436;28;55763;-70
2024/02/07 10:51:35;;;;;;;;;13.33;12.00;;;;;-144.24;100.00;80947.66;5029276;28;46748;-69
2024/02/07 10:54:06;;;;;;;;;8.00;6.67;;;;;-144.24;100.00;80612.25;5017949;28;45427;-71
2024/02/07 10:56:37;;;;;;;;;9.33;7.67;;;;;-144.24;100.00;79781.94;5016272;28;45583;-70
2024/02/07 10:59:03;;;;;;;;;8.33;8.33;;;;;-144.24;100.00;79608.22;5035310;28;45632;-71
2024/02/07 11:01:30;;;;;;;;;10.67;6.67;;;;;-144.24;100.00;79232.53;5032185;28;46669;-70
2024/02/07 11:04:00;;;;;;;;;15.33;11.00;;;;;-144.24;100.00;79075.00;5035200;28;45439;-71
2024/02/07 11:06:26;;;;;;;;;12.00;8.00;;;;;-144.24;100.00;78505.50;5032924;28;45444;-72
2024/02/07 11:08:53;;;;;;;;;9.67;8.00;;;;;-144.24;100.00;78057.22;5031706;28;45479;-70
2024/02/07 11:11:20;;;;;;;;;15.67;8.67;;;;;-144.24;100.00;77748.31;5034384;28;46977;-69
2024/02/07 11:13:47;;;;;;;;;7.33;6.00;;;;;-144.24;100.00;77502.00;5032002;28;45514;-70
2024/02/07 11:16:13;;;;;;;;;6.00;6.00;;;;;-144.24;100.00;77275.91;5034787;28;45483;-70
2024/02/07 11:18:38;;;;;;;;;8.33;7.00;;;;;-144.24;100.00;77243.59;5034630;28;54097;-70
2024/02/07 11:21:05;;;;;;;;;6.33;5.33;;;;;-144.24;100.00;76795.47;5028513;28;63618;-71
2024/02/07 11:23:36;;;;;;;;;6.00;5.33;;;;;-144.24;100.00;76587.56;5031981;28;48066;-72
2024/02/07 11:26:01;;;;;;;;;7.67;6.00;;;;;-144.24;100.00;76367.56;5001903;28;45586;-71
2024/02/07 11:28:28;;;;;;;;;11.33;6.33;;;;;-144.24;100.00;76143.53;5009838;28;45503;-72
2024/02/07 11:30:55;;;;;;;;;6.67;6.00;;;;;-144.24;100.00;76137.47;5028138;28;46490;-70
2024/02/07 11:33:20;;;;;;;;;8.67;6.00;;;;;-144.24;100.00;76099.13;5032988;28;45486;-71
2024/02/07 11:35:46;;;;;;;;;8.00;5.00;;;;;-144.24;100.00;76119.31;5009512;28;45563;-71
2024/02/07 11:38:11;;;;;;;;;8.33;6.00;;;;;-144.24;100.00;76091.06;5033099;28;50847;-70
2024/02/07 11:40:38;;;;;;;;;6.33;6.00;;;;;-144.24;100.00;75980.06;5029442;28;47023;-72
2024/02/07 11:43:04;;;;;;;;;7.00;6.00;;;;;-144.24;100.00;75778.25;5029450;28;45669;-72
2024/02/07 11:45:29;;;;;;;;;6.67;6.67;;;;;-144.24;100.00;75881.19;5031797;28;65206;-73
2024/02/07 11:47:55;;;;;;;;;11.00;7.33;;;;;-144.24;100.00;76038.59;5030765;28;45513;-72
2024/02/07 11:50:21;;;;;;;;;9.00;6.00;;;;;-144.24;100.00;75897.31;5029653;28;48841;-74
2024/02/07 11:52:46;;;;;;;;;8.00;6.00;;;;;-144.24;100.00;75756.06;5032271;28;45407;-71
2024/02/07 11:55:16;;;;;;;;;24.33;14.67;;;;;-144.24;100.00;75844.84;5026785;28;47102;-72
2024/02/07 11:57:46;;;;;;;;;6.00;6.00;;;;;-144.24;100.00;75901.38;5035500;28;45476;-72